sensor_id;sensor_type;location;lat;lon;timestamp;P1;durP1;ratioP1;P2;durP2;ratioP2
24826;SDS011;12910;57.690;11.974;2023-04-01T00:01:17;0.80;;;0.80;;
24826;SDS011;12910;57.690;11.974;2023-04-01T00:03:43;4.73;;;0.67;;
24826;SDS011;12910;57.690;11.974;2023-04-01T00:06:11;0.50;;;0.50;;
24826;SDS011;12910;57.690;11.974;2023-04-01T00:08:38;0.80;;;0.80;;
24826;SDS011;12910;57.690;11.974;2023-04-01T00:11:04;0.67;;;0.67;;
24826;SDS011;12910;57.690;11.974;2023-04-01T00:13:30;2.33;;;0.50;;
24826;SDS011;12910;57.690;11.974;2023-04-01T00:15:55;0.60;;;0.60;;
24826;SDS011;12910;57.690;11.974;2023-04-01T00:18:21;0.70;;;0.70;;
24826;SDS011;12910;57.690;11.974;2023-04-01T00:20:47;0.80;;;0.80;;
24826;SDS011;12910;57.690;11.974;2023-04-01T00:23:14;3.83;;;0.93;;
24826;SDS011;12910;57.690;11.974;2023-04-01T00:25:40;0.70;;;0.70;;
24826;SDS011;12910;57.690;11.974;2023-04-01T00:28:06;0.70;;;0.70;;
24826;SDS011;12910;57.690;11.974;2023-04-01T00:30:31;1.20;;;1.10;;
24826;SDS011;12910;57.690;11.974;2023-04-01T00:32:57;0.77;;;0.70;;
24826;SDS011;12910;57.690;11.974;2023-04-01T00:35:22;0.50;;;0.50;;
24826;SDS011;12910;57.690;11.974;2023-04-01T00:37:48;0.73;;;0.67;;
24826;SDS011;12910;57.690;11.974;2023-04-01T00:40:27;0.80;;;0.60;;
24826;SDS011;12910;57.690;11.974;2023-04-01T00:42:58;0.63;;;0.60;;
24826;SDS011;12910;57.690;11.974;2023-04-01T00:47:53;0.93;;;0.70;;
24826;SDS011;12910;57.690;11.974;2023-04-01T00:50:20;1.07;;;0.90;;
24826;SDS011;12910;57.690;11.974;2023-04-01T00:52:49;0.70;;;0.60;;
24826;SDS011;12910;57.690;11.974;2023-04-01T00:55:15;0.83;;;0.83;;
24826;SDS011;12910;57.690;11.974;2023-04-01T00:57:43;0.77;;;0.70;;
24826;SDS011;12910;57.690;11.974;2023-04-01T01:00:12;0.83;;;0.60;;
24826;SDS011;12910;57.690;11.974;2023-04-01T01:02:42;2.53;;;0.80;;
24826;SDS011;12910;57.690;11.974;2023-04-01T01:05:11;0.60;;;0.60;;
24826;SDS011;12910;57.690;11.974;2023-04-01T01:15:47;0.60;;;0.60;;
24826;SDS011;12910;57.690;11.974;2023-04-01T01:18:38;0.57;;;0.50;;
24826;SDS011;12910;57.690;11.974;2023-04-01T01:21:25;0.60;;;0.57;;
24826;SDS011;12910;57.690;11.974;2023-04-01T01:27:17;0.60;;;0.60;;
24826;SDS011;12910;57.690;11.974;2023-04-01T01:38:21;0.90;;;0.70;;
24826;SDS011;12910;57.690;11.974;2023-04-01T01:40:50;0.70;;;0.70;;
24826;SDS011;12910;57.690;11.974;2023-04-01T01:43:20;5.53;;;0.60;;
24826;SDS011;12910;57.690;11.974;2023-04-01T01:45:50;0.47;;;0.47;;
24826;SDS011;12910;57.690;11.974;2023-04-01T01:48:19;1.30;;;0.70;;
24826;SDS011;12910;57.690;11.974;2023-04-01T01:50:45;0.50;;;0.50;;
24826;SDS011;12910;57.690;11.974;2023-04-01T01:53:13;0.50;;;0.50;;
24826;SDS011;12910;57.690;11.974;2023-04-01T01:55:43;0.60;;;0.60;;
24826;SDS011;12910;57.690;11.974;2023-04-01T01:58:19;0.70;;;0.70;;
24826;SDS011;12910;57.690;11.974;2023-04-01T02:00:59;0.70;;;0.70;;
24826;SDS011;12910;57.690;11.974;2023-04-01T02:03:28;0.57;;;0.57;;
24826;SDS011;12910;57.690;11.974;2023-04-01T02:05:57;1.17;;;0.60;;
24826;SDS011;12910;57.690;11.974;2023-04-01T02:08:28;0.57;;;0.57;;
24826;SDS011;12910;57.690;11.974;2023-04-01T02:11:03;1.23;;;0.63;;
24826;SDS011;12910;57.690;11.974;2023-04-01T02:15:58;0.60;;;0.60;;
24826;SDS011;12910;57.690;11.974;2023-04-01T02:18:27;0.70;;;0.70;;
24826;SDS011;12910;57.690;11.974;2023-04-01T02:20:54;0.60;;;0.60;;
24826;SDS011;12910;57.690;11.974;2023-04-01T02:23:23;0.70;;;0.70;;
24826;SDS011;12910;57.690;11.974;2023-04-01T02:25:48;0.63;;;0.63;;
24826;SDS011;12910;57.690;11.974;2023-04-01T02:28:14;2.00;;;0.60;;
24826;SDS011;12910;57.690;11.974;2023-04-01T02:30:44;0.70;;;0.70;;
24826;SDS011;12910;57.690;11.974;2023-04-01T02:33:11;2.30;;;0.50;;
24826;SDS011;12910;57.690;11.974;2023-04-01T02:35:37;0.70;;;0.70;;
24826;SDS011;12910;57.690;11.974;2023-04-01T02:38:03;1.60;;;0.43;;
24826;SDS011;12910;57.690;11.974;2023-04-01T02:40:40;1.33;;;0.47;;
24826;SDS011;12910;57.690;11.974;2023-04-01T02:43:07;0.80;;;0.80;;
24826;SDS011;12910;57.690;11.974;2023-04-01T02:45:32;1.07;;;0.50;;
24826;SDS011;12910;57.690;11.974;2023-04-01T02:47:57;0.70;;;0.70;;
24826;SDS011;12910;57.690;11.974;2023-04-01T02:50:23;0.50;;;0.50;;
24826;SDS011;12910;57.690;11.974;2023-04-01T02:52:48;0.80;;;0.80;;
24826;SDS011;12910;57.690;11.974;2023-04-01T02:55:13;1.27;;;0.60;;
24826;SDS011;12910;57.690;11.974;2023-04-01T02:57:39;0.93;;;0.93;;
24826;SDS011;12910;57.690;11.974;2023-04-01T03:00:04;0.50;;;0.50;;
24826;SDS011;12910;57.690;11.974;2023-04-01T03:02:36;0.50;;;0.50;;
24826;SDS011;12910;57.690;11.974;2023-04-01T03:05:01;0.60;;;0.60;;
24826;SDS011;12910;57.690;11.974;2023-04-01T03:07:27;0.50;;;0.50;;
24826;SDS011;12910;57.690;11.974;2023-04-01T03:09:53;0.73;;;0.63;;
24826;SDS011;12910;57.690;11.974;2023-04-01T03:12:18;0.70;;;0.70;;
24826;SDS011;12910;57.690;11.974;2023-04-01T03:14:43;0.50;;;0.50;;
24826;SDS011;12910;57.690;11.974;2023-04-01T03:17:09;0.67;;;0.50;;
24826;SDS011;12910;57.690;11.974;2023-04-01T03:19:34;1.57;;;0.60;;
24826;SDS011;12910;57.690;11.974;2023-04-01T03:22:00;0.50;;;0.50;;
24826;SDS011;12910;57.690;11.974;2023-04-01T03:24:25;0.50;;;0.50;;
24826;SDS011;12910;57.690;11.974;2023-04-01T03:26:50;0.67;;;0.67;;
24826;SDS011;12910;57.690;11.974;2023-04-01T03:29:16;1.03;;;1.03;;
24826;SDS011;12910;57.690;11.974;2023-04-01T03:31:41;0.70;;;0.50;;
24826;SDS011;12910;57.690;11.974;2023-04-01T03:34:07;0.60;;;0.60;;
24826;SDS011;12910;57.690;11.974;2023-04-01T03:36:33;8.97;;;0.60;;
24826;SDS011;12910;57.690;11.974;2023-04-01T03:38:58;0.53;;;0.53;;
24826;SDS011;12910;57.690;11.974;2023-04-01T03:41:24;0.77;;;0.60;;
24826;SDS011;12910;57.690;11.974;2023-04-01T03:43:50;0.40;;;0.40;;
24826;SDS011;12910;57.690;11.974;2023-04-01T03:46:18;0.40;;;0.40;;
24826;SDS011;12910;57.690;11.974;2023-04-01T03:48:45;0.50;;;0.50;;
24826;SDS011;12910;57.690;11.974;2023-04-01T03:51:10;0.60;;;0.60;;
24826;SDS011;12910;57.690;11.974;2023-04-01T03:53:36;2.43;;;0.67;;
24826;SDS011;12910;57.690;11.974;2023-04-01T03:56:05;0.80;;;0.70;;
24826;SDS011;12910;57.690;11.974;2023-04-01T03:58:32;1.43;;;1.07;;
24826;SDS011;12910;57.690;11.974;2023-04-01T04:00:57;0.60;;;0.60;;
24826;SDS011;12910;57.690;11.974;2023-04-01T04:03:24;0.60;;;0.50;;
24826;SDS011;12910;57.690;11.974;2023-04-01T04:05:49;0.80;;;0.80;;
24826;SDS011;12910;57.690;11.974;2023-04-01T04:08:15;0.50;;;0.50;;
24826;SDS011;12910;57.690;11.974;2023-04-01T04:10:41;0.70;;;0.50;;
24826;SDS011;12910;57.690;11.974;2023-04-01T04:13:07;0.53;;;0.40;;
24826;SDS011;12910;57.690;11.974;2023-04-01T04:15:32;0.60;;;0.60;;
24826;SDS011;12910;57.690;11.974;2023-04-01T04:17:58;0.60;;;0.60;;
24826;SDS011;12910;57.690;11.974;2023-04-01T04:20:23;0.60;;;0.60;;
24826;SDS011;12910;57.690;11.974;2023-04-01T04:22:48;1.63;;;0.50;;
24826;SDS011;12910;57.690;11.974;2023-04-01T04:25:14;1.00;;;0.70;;
24826;SDS011;12910;57.690;11.974;2023-04-01T04:27:39;0.70;;;0.70;;
24826;SDS011;12910;57.690;11.974;2023-04-01T04:30:05;0.63;;;0.63;;
24826;SDS011;12910;57.690;11.974;2023-04-01T04:32:32;0.70;;;0.70;;
24826;SDS011;12910;57.690;11.974;2023-04-01T04:34:57;0.40;;;0.40;;
24826;SDS011;12910;57.690;11.974;2023-04-01T04:37:22;0.70;;;0.70;;
24826;SDS011;12910;57.690;11.974;2023-04-01T04:39:48;0.40;;;0.40;;
24826;SDS011;12910;57.690;11.974;2023-04-01T04:42:13;0.90;;;0.60;;
24826;SDS011;12910;57.690;11.974;2023-04-01T04:44:39;0.70;;;0.70;;
24826;SDS011;12910;57.690;11.974;2023-04-01T04:47:04;0.47;;;0.47;;
24826;SDS011;12910;57.690;11.974;2023-04-01T04:49:30;0.90;;;0.50;;
24826;SDS011;12910;57.690;11.974;2023-04-01T04:51:56;0.67;;;0.67;;
24826;SDS011;12910;57.690;11.974;2023-04-01T04:54:21;2.40;;;0.43;;
24826;SDS011;12910;57.690;11.974;2023-04-01T04:56:46;2.37;;;0.53;;
24826;SDS011;12910;57.690;11.974;2023-04-01T04:59:12;0.50;;;0.50;;
24826;SDS011;12910;57.690;11.974;2023-04-01T05:01:37;0.40;;;0.40;;
24826;SDS011;12910;57.690;11.974;2023-04-01T05:04:03;2.33;;;0.70;;
24826;SDS011;12910;57.690;11.974;2023-04-01T05:06:29;0.63;;;0.63;;
24826;SDS011;12910;57.690;11.974;2023-04-01T05:08:54;0.90;;;0.50;;
24826;SDS011;12910;57.690;11.974;2023-04-01T05:11:20;0.60;;;0.60;;
24826;SDS011;12910;57.690;11.974;2023-04-01T05:13:46;0.40;;;0.40;;
24826;SDS011;12910;57.690;11.974;2023-04-01T05:16:12;0.30;;;0.30;;
24826;SDS011;12910;57.690;11.974;2023-04-01T05:18:42;0.73;;;0.50;;
24826;SDS011;12910;57.690;11.974;2023-04-01T05:21:08;1.33;;;1.23;;
24826;SDS011;12910;57.690;11.974;2023-04-01T05:23:36;0.60;;;0.60;;
24826;SDS011;12910;57.690;11.974;2023-04-01T05:26:05;0.87;;;0.40;;
24826;SDS011;12910;57.690;11.974;2023-04-01T05:28:32;0.80;;;0.60;;
24826;SDS011;12910;57.690;11.974;2023-04-01T05:30:58;0.60;;;0.60;;
24826;SDS011;12910;57.690;11.974;2023-04-01T05:33:25;0.40;;;0.40;;
24826;SDS011;12910;57.690;11.974;2023-04-01T05:35:51;0.43;;;0.40;;
24826;SDS011;12910;57.690;11.974;2023-04-01T05:38:17;0.50;;;0.50;;
24826;SDS011;12910;57.690;11.974;2023-04-01T05:40:42;0.40;;;0.40;;
24826;SDS011;12910;57.690;11.974;2023-04-01T05:43:08;0.50;;;0.50;;
24826;SDS011;12910;57.690;11.974;2023-04-01T05:45:33;2.63;;;0.60;;
24826;SDS011;12910;57.690;11.974;2023-04-01T05:47:59;0.50;;;0.50;;
24826;SDS011;12910;57.690;11.974;2023-04-01T05:50:25;5.63;;;0.50;;
24826;SDS011;12910;57.690;11.974;2023-04-01T05:52:50;0.33;;;0.33;;
24826;SDS011;12910;57.690;11.974;2023-04-01T05:55:16;1.13;;;0.50;;
24826;SDS011;12910;57.690;11.974;2023-04-01T05:57:41;0.73;;;0.73;;
24826;SDS011;12910;57.690;11.974;2023-04-01T06:00:07;0.93;;;0.93;;
24826;SDS011;12910;57.690;11.974;2023-04-01T06:02:33;1.90;;;0.50;;
24826;SDS011;12910;57.690;11.974;2023-04-01T06:07:35;0.80;;;0.60;;
24826;SDS011;12910;57.690;11.974;2023-04-01T06:10:01;0.40;;;0.40;;
24826;SDS011;12910;57.690;11.974;2023-04-01T06:25:52;0.50;;;0.50;;
24826;SDS011;12910;57.690;11.974;2023-04-01T06:31:23;0.40;;;0.40;;
24826;SDS011;12910;57.690;11.974;2023-04-01T06:34:26;0.40;;;0.40;;
24826;SDS011;12910;57.690;11.974;2023-04-01T06:45:03;0.40;;;0.40;;
24826;SDS011;12910;57.690;11.974;2023-04-01T06:51:10;0.47;;;0.40;;
24826;SDS011;12910;57.690;11.974;2023-04-01T06:56:15;1.63;;;0.70;;
24826;SDS011;12910;57.690;11.974;2023-04-01T06:58:54;0.70;;;0.70;;
24826;SDS011;12910;57.690;11.974;2023-04-01T07:01:41;0.30;;;0.30;;
24826;SDS011;12910;57.690;11.974;2023-04-01T07:04:20;0.30;;;0.30;;
24826;SDS011;12910;57.690;11.974;2023-04-01T07:06:59;0.77;;;0.50;;
24826;SDS011;12910;57.690;11.974;2023-04-01T07:09:30;0.33;;;0.33;;
24826;SDS011;12910;57.690;11.974;2023-04-01T07:12:00;0.30;;;0.30;;
24826;SDS011;12910;57.690;11.974;2023-04-01T07:14:37;0.33;;;0.33;;
24826;SDS011;12910;57.690;11.974;2023-04-01T07:17:23;0.77;;;0.40;;
24826;SDS011;12910;57.690;11.974;2023-04-01T07:19:56;0.73;;;0.40;;
24826;SDS011;12910;57.690;11.974;2023-04-01T07:22:38;0.40;;;0.40;;
24826;SDS011;12910;57.690;11.974;2023-04-01T07:27:41;0.37;;;0.37;;
24826;SDS011;12910;57.690;11.974;2023-04-01T07:30:13;0.50;;;0.50;;
24826;SDS011;12910;57.690;11.974;2023-04-01T07:32:58;0.50;;;0.50;;
24826;SDS011;12910;57.690;11.974;2023-04-01T07:35:39;0.50;;;0.50;;
24826;SDS011;12910;57.690;11.974;2023-04-01T07:46:53;0.30;;;0.30;;
24826;SDS011;12910;57.690;11.974;2023-04-01T07:52:16;2.50;;;0.70;;
24826;SDS011;12910;57.690;11.974;2023-04-01T07:54:50;0.30;;;0.30;;
24826;SDS011;12910;57.690;11.974;2023-04-01T07:57:41;0.53;;;0.40;;
24826;SDS011;12910;57.690;11.974;2023-04-01T08:08:43;0.37;;;0.37;;
24826;SDS011;12910;57.690;11.974;2023-04-01T08:11:19;6.80;;;0.70;;
24826;SDS011;12910;57.690;11.974;2023-04-01T08:14:18;3.20;;;0.47;;
24826;SDS011;12910;57.690;11.974;2023-04-01T08:22:35;0.30;;;0.27;;
24826;SDS011;12910;57.690;11.974;2023-04-01T08:25:03;0.87;;;0.50;;
24826;SDS011;12910;57.690;11.974;2023-04-01T08:27:46;0.30;;;0.30;;
24826;SDS011;12910;57.690;11.974;2023-04-01T08:30:24;0.53;;;0.53;;
24826;SDS011;12910;57.690;11.974;2023-04-01T08:35:40;2.50;;;0.70;;
24826;SDS011;12910;57.690;11.974;2023-04-01T08:38:13;0.50;;;0.50;;
24826;SDS011;12910;57.690;11.974;2023-04-01T08:57:28;0.20;;;0.20;;
24826;SDS011;12910;57.690;11.974;2023-04-01T09:13:58;0.47;;;0.30;;
24826;SDS011;12910;57.690;11.974;2023-04-01T09:27:28;0.37;;;0.30;;
24826;SDS011;12910;57.690;11.974;2023-04-01T09:37:52;0.30;;;0.30;;
24826;SDS011;12910;57.690;11.974;2023-04-01T09:40:46;0.77;;;0.50;;
24826;SDS011;12910;57.690;11.974;2023-04-01T09:49:11;0.60;;;0.50;;
24826;SDS011;12910;57.690;11.974;2023-04-01T10:08:26;0.20;;;0.20;;
24826;SDS011;12910;57.690;11.974;2023-04-01T10:25:23;1.80;;;0.37;;
24826;SDS011;12910;57.690;11.974;2023-04-01T10:51:01;0.77;;;0.40;;
24826;SDS011;12910;57.690;11.974;2023-04-01T10:56:44;0.50;;;0.40;;
24826;SDS011;12910;57.690;11.974;2023-04-01T11:02:12;0.50;;;0.50;;
24826;SDS011;12910;57.690;11.974;2023-04-01T11:24:45;1.90;;;0.40;;
24826;SDS011;12910;57.690;11.974;2023-04-01T11:36:00;0.83;;;0.50;;
24826;SDS011;12910;57.690;11.974;2023-04-01T11:39:00;0.27;;;0.27;;
24826;SDS011;12910;57.690;11.974;2023-04-01T11:44:25;0.73;;;0.40;;
24826;SDS011;12910;57.690;11.974;2023-04-01T11:55:40;1.87;;;0.40;;
24826;SDS011;12910;57.690;11.974;2023-04-01T12:07:22;4.67;;;0.50;;
24826;SDS011;12910;57.690;11.974;2023-04-01T12:10:12;0.20;;;0.20;;
24826;SDS011;12910;57.690;11.974;2023-04-01T12:18:10;3.17;;;0.60;;
24826;SDS011;12910;57.690;11.974;2023-04-01T12:20:48;0.30;;;0.30;;
24826;SDS011;12910;57.690;11.974;2023-04-01T12:29:07;0.57;;;0.20;;
24826;SDS011;12910;57.690;11.974;2023-04-01T12:37:41;0.40;;;0.30;;
24826;SDS011;12910;57.690;11.974;2023-04-01T12:46:01;0.27;;;0.27;;
24826;SDS011;12910;57.690;11.974;2023-04-01T12:59:14;0.27;;;0.27;;
24826;SDS011;12910;57.690;11.974;2023-04-01T13:04:43;0.63;;;0.40;;
24826;SDS011;12910;57.690;11.974;2023-04-01T13:18:17;0.20;;;0.20;;
24826;SDS011;12910;57.690;11.974;2023-04-01T13:26:08;0.20;;;0.20;;
24826;SDS011;12910;57.690;11.974;2023-04-01T13:28:54;1.27;;;0.20;;
24826;SDS011;12910;57.690;11.974;2023-04-01T13:31:47;0.30;;;0.30;;
24826;SDS011;12910;57.690;11.974;2023-04-01T13:40:04;1.20;;;0.50;;
24826;SDS011;12910;57.690;11.974;2023-04-01T13:42:47;0.20;;;0.20;;
24826;SDS011;12910;57.690;11.974;2023-04-01T13:45:20;2.83;;;0.60;;
24826;SDS011;12910;57.690;11.974;2023-04-01T14:11:17;0.40;;;0.40;;
24826;SDS011;12910;57.690;11.974;2023-04-01T14:13:53;0.30;;;0.30;;
24826;SDS011;12910;57.690;11.974;2023-04-01T14:41:51;0.83;;;0.43;;
24826;SDS011;12910;57.690;11.974;2023-04-01T14:45:02;0.30;;;0.30;;
24826;SDS011;12910;57.690;11.974;2023-04-01T14:50:50;0.30;;;0.30;;
24826;SDS011;12910;57.690;11.974;2023-04-01T14:58:15;2.43;;;0.30;;
24826;SDS011;12910;57.690;11.974;2023-04-01T15:03:29;3.90;;;0.30;;
24826;SDS011;12910;57.690;11.974;2023-04-01T15:11:25;0.20;;;0.20;;
24826;SDS011;12910;57.690;11.974;2023-04-01T15:14:31;0.40;;;0.40;;
24826;SDS011;12910;57.690;11.974;2023-04-01T15:22:34;0.20;;;0.20;;
24826;SDS011;12910;57.690;11.974;2023-04-01T15:33:42;0.23;;;0.20;;
24826;SDS011;12910;57.690;11.974;2023-04-01T15:36:53;0.30;;;0.30;;
24826;SDS011;12910;57.690;11.974;2023-04-01T15:50:40;0.20;;;0.20;;
24826;SDS011;12910;57.690;11.974;2023-04-01T15:55:26;1.07;;;0.40;;
24826;SDS011;12910;57.690;11.974;2023-04-01T16:03:18;0.33;;;0.33;;
24826;SDS011;12910;57.690;11.974;2023-04-01T16:22:24;0.33;;;0.33;;
24826;SDS011;12910;57.690;11.974;2023-04-01T16:33:30;1.23;;;0.23;;
24826;SDS011;12910;57.690;11.974;2023-04-01T16:41:52;0.40;;;0.40;;
24826;SDS011;12910;57.690;11.974;2023-04-01T16:44:47;1.20;;;0.43;;
24826;SDS011;12910;57.690;11.974;2023-04-01T16:47:56;0.87;;;0.50;;
24826;SDS011;12910;57.690;11.974;2023-04-01T16:56:24;0.90;;;0.33;;
24826;SDS011;12910;57.690;11.974;2023-04-01T17:01:43;2.07;;;0.30;;
24826;SDS011;12910;57.690;11.974;2023-04-01T17:04:19;0.40;;;0.40;;
24826;SDS011;12910;57.690;11.974;2023-04-01T17:06:51;0.30;;;0.30;;
24826;SDS011;12910;57.690;11.974;2023-04-01T17:09:26;0.40;;;0.40;;
24826;SDS011;12910;57.690;11.974;2023-04-01T17:14:49;2.03;;;0.57;;
24826;SDS011;12910;57.690;11.974;2023-04-01T17:17:45;1.43;;;0.70;;
24826;SDS011;12910;57.690;11.974;2023-04-01T17:25:42;4.77;;;0.50;;
24826;SDS011;12910;57.690;11.974;2023-04-01T17:28:23;0.40;;;0.40;;
24826;SDS011;12910;57.690;11.974;2023-04-01T17:31:05;2.83;;;0.30;;
24826;SDS011;12910;57.690;11.974;2023-04-01T17:33:51;0.30;;;0.30;;
24826;SDS011;12910;57.690;11.974;2023-04-01T17:39:05;1.50;;;0.40;;
24826;SDS011;12910;57.690;11.974;2023-04-01T17:44:26;0.60;;;0.40;;
24826;SDS011;12910;57.690;11.974;2023-04-01T17:47:07;0.77;;;0.40;;
24826;SDS011;12910;57.690;11.974;2023-04-01T17:52:21;0.47;;;0.40;;
24826;SDS011;12910;57.690;11.974;2023-04-01T18:00:24;1.10;;;0.50;;
24826;SDS011;12910;57.690;11.974;2023-04-01T18:02:57;0.50;;;0.37;;
24826;SDS011;12910;57.690;11.974;2023-04-01T18:06:07;0.33;;;0.33;;
24826;SDS011;12910;57.690;11.974;2023-04-01T18:22:26;5.87;;;0.70;;
24826;SDS011;12910;57.690;11.974;2023-04-01T18:25:17;0.40;;;0.40;;
24826;SDS011;12910;57.690;11.974;2023-04-01T18:30:54;1.97;;;0.40;;
24826;SDS011;12910;57.690;11.974;2023-04-01T18:33:43;0.40;;;0.40;;
24826;SDS011;12910;57.690;11.974;2023-04-01T18:39:15;5.30;;;0.60;;
24826;SDS011;12910;57.690;11.974;2023-04-01T18:55:46;0.50;;;0.50;;
24826;SDS011;12910;57.690;11.974;2023-04-01T18:58:22;0.40;;;0.40;;
24826;SDS011;12910;57.690;11.974;2023-04-01T19:06:53;1.37;;;0.73;;
24826;SDS011;12910;57.690;11.974;2023-04-01T19:09:15;0.50;;;0.50;;
24826;SDS011;12910;57.690;11.974;2023-04-01T19:14:48;0.57;;;0.57;;
24826;SDS011;12910;57.690;11.974;2023-04-01T19:33:52;1.00;;;0.80;;
24826;SDS011;12910;57.690;11.974;2023-04-01T19:45:19;1.40;;;0.80;;
24826;SDS011;12910;57.690;11.974;2023-04-01T19:50:57;1.07;;;0.57;;
24826;SDS011;12910;57.690;11.974;2023-04-01T20:01:05;1.47;;;1.27;;
24826;SDS011;12910;57.690;11.974;2023-04-01T20:03:45;1.60;;;1.20;;
24826;SDS011;12910;57.690;11.974;2023-04-01T20:10:10;1.77;;;1.23;;
24826;SDS011;12910;57.690;11.974;2023-04-01T20:12:19;1.83;;;0.90;;
24826;SDS011;12910;57.690;11.974;2023-04-01T20:14:47;1.40;;;1.00;;
24826;SDS011;12910;57.690;11.974;2023-04-01T20:17:20;2.20;;;0.90;;
24826;SDS011;12910;57.690;11.974;2023-04-01T20:19:59;7.97;;;1.20;;
24826;SDS011;12910;57.690;11.974;2023-04-01T20:22:34;2.50;;;1.10;;
24826;SDS011;12910;57.690;11.974;2023-04-01T20:28:02;1.57;;;0.90;;
24826;SDS011;12910;57.690;11.974;2023-04-01T20:30:44;1.40;;;0.93;;
24826;SDS011;12910;57.690;11.974;2023-04-01T20:35:50;1.57;;;0.97;;
24826;SDS011;12910;57.690;11.974;2023-04-01T20:41:10;5.90;;;1.20;;
24826;SDS011;12910;57.690;11.974;2023-04-01T20:44:06;1.03;;;0.77;;
24826;SDS011;12910;57.690;11.974;2023-04-01T20:51:39;1.77;;;1.20;;
24826;SDS011;12910;57.690;11.974;2023-04-01T20:57:00;1.47;;;1.10;;
24826;SDS011;12910;57.690;11.974;2023-04-01T21:02:47;1.33;;;1.17;;
24826;SDS011;12910;57.690;11.974;2023-04-01T21:08:33;7.57;;;0.80;;
24826;SDS011;12910;57.690;11.974;2023-04-01T21:11:43;4.23;;;0.70;;
24826;SDS011;12910;57.690;11.974;2023-04-01T21:28:29;2.53;;;1.10;;
24826;SDS011;12910;57.690;11.974;2023-04-01T21:31:02;1.80;;;1.27;;
24826;SDS011;12910;57.690;11.974;2023-04-01T21:39:37;8.57;;;1.37;;
24826;SDS011;12910;57.690;11.974;2023-04-01T21:44:42;2.20;;;0.90;;
24826;SDS011;12910;57.690;11.974;2023-04-01T21:55:21;1.30;;;1.07;;
24826;SDS011;12910;57.690;11.974;2023-04-01T22:00:48;1.10;;;0.90;;
24826;SDS011;12910;57.690;11.974;2023-04-01T22:12:01;1.27;;;1.17;;
24826;SDS011;12910;57.690;11.974;2023-04-01T22:14:42;6.70;;;1.80;;
24826;SDS011;12910;57.690;11.974;2023-04-01T22:22:49;2.17;;;1.33;;
24826;SDS011;12910;57.690;11.974;2023-04-01T22:25:31;3.13;;;1.20;;
24826;SDS011;12910;57.690;11.974;2023-04-01T22:28:27;2.00;;;1.80;;
24826;SDS011;12910;57.690;11.974;2023-04-01T22:31:02;7.17;;;1.53;;
24826;SDS011;12910;57.690;11.974;2023-04-01T22:33:49;4.20;;;2.30;;
24826;SDS011;12910;57.690;11.974;2023-04-01T22:42:42;13.40;;;1.40;;
24826;SDS011;12910;57.690;11.974;2023-04-01T22:47:40;1.63;;;1.53;;
24826;SDS011;12910;57.690;11.974;2023-04-01T22:53:12;1.50;;;1.40;;
24826;SDS011;12910;57.690;11.974;2023-04-01T22:55:46;3.70;;;1.60;;
24826;SDS011;12910;57.690;11.974;2023-04-01T22:58:16;2.53;;;1.40;;
24826;SDS011;12910;57.690;11.974;2023-04-01T23:00:51;9.10;;;2.43;;
24826;SDS011;12910;57.690;11.974;2023-04-01T23:03:40;2.40;;;2.13;;
24826;SDS011;12910;57.690;11.974;2023-04-01T23:06:09;11.47;;;1.60;;
24826;SDS011;12910;57.690;11.974;2023-04-01T23:11:13;3.70;;;1.57;;
24826;SDS011;12910;57.690;11.974;2023-04-01T23:13:53;5.47;;;1.63;;
24826;SDS011;12910;57.690;11.974;2023-04-01T23:16:32;1.53;;;1.10;;
24826;SDS011;12910;57.690;11.974;2023-04-01T23:19:19;2.90;;;1.40;;
24826;SDS011;12910;57.690;11.974;2023-04-01T23:27:25;1.40;;;1.30;;
24826;SDS011;12910;57.690;11.974;2023-04-01T23:30:00;5.60;;;1.10;;
24826;SDS011;12910;57.690;11.974;2023-04-01T23:32:25;2.23;;;0.90;;
24826;SDS011;12910;57.690;11.974;2023-04-01T23:34:52;7.47;;;1.20;;
24826;SDS011;12910;57.690;11.974;2023-04-01T23:37:20;6.67;;;1.80;;
24826;SDS011;12910;57.690;11.974;2023-04-01T23:39:53;4.60;;;1.30;;
24826;SDS011;12910;57.690;11.974;2023-04-01T23:42:28;1.60;;;1.40;;
24826;SDS011;12910;57.690;11.974;2023-04-01T23:45:01;7.93;;;1.23;;
24826;SDS011;12910;57.690;11.974;2023-04-01T23:47:30;3.30;;;1.60;;
24826;SDS011;12910;57.690;11.974;2023-04-01T23:50:07;1.43;;;1.33;;
24826;SDS011;12910;57.690;11.974;2023-04-01T23:52:42;5.17;;;1.73;;
24826;SDS011;12910;57.690;11.974;2023-04-01T23:57:36;2.13;;;1.43;;
